createdAt,value
2019-02-14T00:02:14.466Z,76.08
2019-02-14T00:04:42.704Z,76.68
2019-02-14T00:07:11.158Z,76.34
2019-02-14T00:09:39.618Z,76.82
2019-02-14T00:12:07.849Z,76.26
2019-02-14T00:14:36.310Z,75.96
2019-02-14T00:17:04.761Z,76.27
2019-02-14T00:19:33.239Z,76.14
2019-02-14T00:22:01.462Z,75.89
2019-02-14T00:24:29.932Z,76.08
2019-02-14T00:26:58.165Z,76.07
2019-02-14T00:29:26.386Z,76.48
2019-02-14T00:31:54.623Z,76.30
2019-02-14T00:34:22.983Z,75.79
2019-02-14T00:36:51.220Z,75.91
2019-02-14T00:39:19.443Z,75.63
2019-02-14T00:41:47.903Z,75.45
2019-02-14T00:44:16.139Z,75.32
2019-02-14T00:46:44.597Z,75.43
2019-02-14T00:49:12.819Z,75.43
2019-02-14T00:51:41.061Z,76.31
2019-02-14T00:54:09.287Z,76.01
2019-02-14T00:56:37.533Z,76.60
2019-02-14T00:59:05.766Z,76.62
2019-02-14T01:01:34.006Z,76.42
2019-02-14T01:04:02.237Z,75.92
2019-02-14T01:06:30.474Z,75.85
2019-02-14T01:08:58.700Z,76.37
2019-02-14T01:11:27.002Z,76.26
2019-02-14T01:13:55.241Z,76.74
2019-02-14T01:16:23.479Z,76.43
2019-02-14T01:18:51.706Z,77.16
2019-02-14T01:21:20.018Z,76.21
2019-02-14T01:23:48.243Z,76.27
2019-02-14T01:26:16.753Z,77.05
2019-02-14T01:28:44.982Z,76.11
2019-02-14T01:31:13.507Z,76.04
2019-02-14T01:33:41.739Z,76.28
2019-02-14T01:36:09.964Z,75.70
2019-02-14T01:38:38.204Z,75.21
2019-02-14T01:41:06.659Z,75.08
2019-02-14T01:43:34.900Z,75.35
2019-02-14T01:46:03.127Z,75.37
2019-02-14T01:48:31.589Z,75.73
2019-02-14T01:51:00.038Z,75.63
2019-02-14T01:53:28.269Z,75.98
2019-02-14T01:55:56.496Z,75.75
2019-02-14T01:58:24.739Z,76.73
2019-02-14T02:00:52.976Z,76.63
2019-02-14T02:03:21.233Z,76.74
2019-02-14T02:05:50.975Z,76.84
2019-02-14T02:08:19.284Z,76.45
2019-02-14T02:10:47.749Z,76.46
2019-02-14T02:13:16.216Z,76.32
2019-02-14T02:15:44.450Z,76.58
2019-02-14T02:18:12.695Z,77.49
2019-02-14T02:20:40.931Z,77.50
2019-02-14T02:23:09.172Z,77.05
2019-02-14T02:25:37.405Z,77.15
2019-02-14T02:28:05.650Z,77.83
2019-02-14T02:30:34.112Z,77.79
2019-02-14T02:33:02.348Z,77.44
2019-02-14T02:35:30.588Z,77.66
2019-02-14T02:37:58.820Z,76.75
2019-02-14T02:40:27.067Z,77.89
2019-02-14T02:42:55.305Z,78.47
2019-02-14T02:45:23.549Z,77.85
2019-02-14T02:50:21.736Z,77.80
2019-02-14T02:52:49.966Z,78.32
2019-02-14T02:55:18.448Z,77.81
2019-02-14T02:57:46.679Z,77.72
2019-02-14T03:00:16.657Z,77.83
2019-02-14T03:02:44.961Z,78.22
2019-02-14T03:05:15.282Z,77.55
2019-02-14T03:07:43.512Z,77.47
2019-02-14T03:10:13.296Z,77.48
2019-02-14T03:12:41.757Z,78.09
2019-02-14T03:15:12.900Z,78.31
2019-02-14T03:17:41.136Z,78.28
2019-02-14T03:20:11.218Z,78.39
2019-02-14T03:22:39.455Z,78.12
2019-02-14T03:25:16.687Z,77.48
2019-02-14T03:27:44.903Z,77.05
2019-02-14T03:30:15.098Z,77.09
2019-02-14T03:32:43.547Z,77.67
2019-02-14T03:35:11.837Z,77.40
2019-02-14T03:37:40.065Z,77.72
2019-02-14T03:40:11.462Z,77.49
2019-02-14T03:42:39.928Z,77.98
2019-02-14T03:45:13.698Z,77.51
2019-02-14T03:47:41.937Z,77.27
2019-02-14T03:50:11.198Z,77.25
2019-02-14T03:52:39.435Z,77.46
2019-02-14T03:55:09.625Z,77.09
2019-02-14T03:57:38.726Z,76.92
2019-02-14T04:00:12.343Z,76.79
2019-02-14T04:02:40.576Z,77.79
2019-02-14T04:05:09.047Z,77.20
2019-02-14T04:07:37.287Z,77.04
2019-02-14T04:10:13.653Z,77.18
2019-02-14T04:12:42.118Z,77.19
2019-02-14T04:15:15.422Z,77.44
2019-02-14T04:17:43.653Z,77.05
2019-02-14T04:20:12.117Z,77.61
2019-02-14T04:22:40.354Z,77.62
2019-02-14T04:25:09.823Z,77.87
2019-02-14T04:27:38.291Z,78.45
2019-02-14T04:30:09.428Z,78.74
2019-02-14T04:32:37.898Z,77.59
2019-02-14T04:35:06.297Z,77.91
2019-02-14T04:37:34.545Z,77.45
2019-02-14T04:40:02.771Z,77.63
2019-02-14T04:42:31.005Z,77.55
2019-02-14T04:44:59.479Z,77.49
2019-02-14T04:47:27.707Z,77.12
2019-02-14T04:49:55.943Z,77.60
2019-02-14T04:52:24.171Z,77.20
2019-02-14T04:54:52.410Z,77.24
2019-02-14T04:57:20.638Z,77.24
2019-02-14T04:59:49.103Z,77.84
2019-02-14T05:02:17.329Z,77.92
2019-02-14T05:04:45.562Z,77.76
2019-02-14T05:07:14.016Z,77.46
2019-02-14T05:09:42.257Z,77.82
2019-02-14T05:12:10.714Z,78.13
2019-02-14T05:14:39.175Z,77.52
2019-02-14T05:17:07.403Z,77.66
2019-02-14T05:19:35.643Z,78.28
2019-02-14T05:22:04.108Z,77.61
2019-02-14T05:24:32.347Z,77.61
2019-02-14T05:27:00.575Z,77.68
2019-02-14T05:29:28.819Z,77.65
2019-02-14T05:31:57.276Z,77.95
2019-02-14T05:34:25.518Z,78.01
2019-02-14T05:36:55.307Z,78.04
2019-02-14T05:39:23.602Z,78.24
2019-02-14T05:41:51.829Z,79.11
2019-02-14T05:44:20.062Z,78.66
2019-02-14T05:46:48.300Z,79.21
2019-02-14T05:49:16.527Z,78.69
2019-02-14T05:51:44.768Z,78.79
2019-02-14T05:54:12.995Z,78.73
2019-02-14T05:56:41.238Z,78.42
2019-02-14T05:59:09.471Z,78.74
2019-02-14T06:01:37.723Z,78.36
2019-02-14T06:04:05.934Z,78.36
2019-02-14T06:06:34.170Z,78.63
2019-02-14T06:09:02.401Z,78.25
2019-02-14T06:11:30.980Z,78.45
2019-02-14T06:13:59.433Z,78.85
2019-02-14T06:16:27.893Z,78.51
2019-02-14T06:18:56.123Z,78.35
2019-02-14T06:21:24.592Z,78.27
2019-02-14T06:23:52.817Z,78.80
2019-02-14T06:26:21.060Z,78.44
2019-02-14T06:28:49.293Z,78.88
2019-02-14T06:31:17.527Z,78.68
2019-02-14T06:33:45.759Z,78.39
2019-02-14T06:36:14.260Z,79.12
2019-02-14T06:38:42.493Z,79.14
2019-02-14T06:41:10.725Z,78.66
2019-02-14T06:43:38.955Z,79.00
2019-02-14T06:46:07.203Z,79.37
2019-02-14T06:48:35.753Z,79.43
2019-02-14T06:51:03.979Z,79.42
2019-02-14T06:53:32.221Z,79.00
2019-02-14T06:56:00.452Z,78.52
2019-02-14T06:58:28.691Z,78.41
2019-02-14T07:00:57.247Z,78.32
2019-02-14T07:03:25.706Z,78.25
2019-02-14T07:05:54.197Z,78.21
2019-02-14T07:08:22.418Z,78.44
2019-02-14T07:10:50.874Z,78.85
2019-02-14T07:13:19.129Z,79.25
2019-02-14T07:15:47.369Z,79.06
2019-02-14T07:18:15.619Z,79.07
2019-02-14T07:20:43.857Z,79.48
2019-02-14T07:23:12.117Z,79.63
2019-02-14T07:25:40.356Z,80.27
2019-02-14T07:28:08.828Z,79.22
2019-02-14T07:30:37.300Z,79.87
2019-02-14T07:33:05.609Z,79.76
2019-02-14T07:35:34.169Z,79.55
2019-02-14T07:38:02.753Z,79.67
2019-02-14T07:40:30.996Z,79.86
2019-02-14T07:42:59.510Z,79.38
2019-02-14T07:45:27.739Z,79.12
2019-02-14T07:47:56.202Z,78.77
2019-02-14T07:50:24.456Z,79.21
2019-02-14T07:52:52.695Z,79.06
2019-02-14T07:55:20.947Z,78.53
2019-02-14T07:57:49.484Z,78.74
2019-02-14T08:00:19.395Z,78.44
2019-02-14T08:02:47.625Z,78.29
2019-02-14T08:05:15.870Z,78.07
2019-02-14T08:07:44.101Z,77.92
2019-02-14T08:10:16.314Z,77.94
2019-02-14T08:12:44.773Z,79.08
2019-02-14T08:15:16.192Z,79.12
2019-02-14T08:17:44.402Z,78.41
2019-02-14T08:20:15.186Z,78.63
2019-02-14T08:22:43.418Z,79.38
2019-02-14T08:25:13.108Z,79.15
2019-02-14T08:27:41.342Z,78.94
2019-02-14T08:30:15.068Z,78.99
2019-02-14T08:32:43.531Z,78.80
2019-02-14T08:35:11.779Z,78.28
2019-02-14T08:37:45.453Z,78.71
2019-02-14T08:40:19.359Z,78.01
2019-02-14T08:42:47.861Z,77.97
2019-02-14T08:45:16.341Z,78.25
2019-02-14T08:47:44.591Z,77.76
2019-02-14T08:50:12.896Z,77.52
2019-02-14T08:52:41.144Z,77.30
2019-02-14T08:55:10.287Z,77.52
2019-02-14T08:57:38.866Z,77.06
2019-02-14T09:00:15.204Z,76.66
2019-02-14T09:02:43.527Z,76.51
2019-02-14T09:05:12.085Z,75.65
2019-02-14T09:07:40.326Z,75.78
2019-02-14T09:10:14.295Z,75.54
2019-02-14T09:12:42.563Z,75.19
2019-02-14T09:15:12.542Z,75.04
2019-02-14T09:17:40.785Z,75.11
2019-02-14T09:20:12.117Z,74.62
2019-02-14T09:22:40.358Z,74.72
2019-02-14T09:25:08.595Z,74.69
2019-02-14T09:27:36.841Z,73.79
2019-02-14T09:30:08.201Z,73.25
2019-02-14T09:32:36.427Z,72.87
2019-02-14T09:35:06.498Z,71.29
2019-02-14T09:37:34.979Z,71.29
2019-02-14T09:40:03.678Z,71.53
2019-02-14T09:42:31.917Z,71.53
2019-02-14T09:45:00.316Z,70.74
2019-02-14T09:47:28.486Z,68.78
2019-02-14T09:49:56.749Z,69.51
2019-02-14T09:52:24.964Z,68.99
2019-02-14T09:54:53.209Z,69.73
2019-02-14T09:57:21.476Z,69.73
2019-02-14T09:59:49.693Z,68.39
2019-02-14T10:02:17.936Z,67.77
2019-02-14T10:04:46.179Z,67.89
2019-02-14T10:07:14.889Z,67.81
2019-02-14T10:09:43.170Z,67.07
2019-02-14T10:12:11.391Z,67.67
2019-02-14T10:14:39.921Z,66.38
2019-02-14T10:17:08.154Z,65.88
2019-02-14T10:19:36.688Z,66.71
2019-02-14T10:22:05.149Z,66.82
2019-02-14T10:24:33.627Z,66.64
2019-02-14T10:27:01.866Z,65.53
2019-02-14T10:29:30.107Z,66.00
2019-02-14T10:31:58.343Z,66.32
2019-02-14T10:34:26.806Z,66.42
2019-02-14T10:36:55.051Z,65.82
2019-02-14T10:39:23.276Z,65.25
2019-02-14T10:41:51.523Z,64.53
2019-02-14T10:44:19.986Z,65.31
2019-02-14T10:46:48.552Z,64.88
2019-02-14T10:49:16.781Z,65.29
2019-02-14T10:51:45.035Z,65.70
2019-02-14T10:54:13.268Z,65.24
2019-02-14T10:56:41.509Z,65.59
2019-02-14T10:59:09.746Z,64.95
2019-02-14T11:01:38.221Z,65.59
2019-02-14T11:04:06.456Z,65.39
2019-02-14T11:06:34.697Z,64.51
2019-02-14T11:09:03.250Z,65.17
2019-02-14T11:11:31.492Z,65.02
2019-02-14T11:13:59.723Z,64.34
2019-02-14T11:16:27.971Z,62.81
2019-02-14T11:18:56.239Z,62.84
2019-02-14T11:21:24.476Z,62.44
2019-02-14T11:23:52.720Z,62.73
2019-02-14T11:26:20.961Z,63.22
2019-02-14T11:28:49.470Z,63.64
2019-02-14T11:31:17.942Z,62.56
2019-02-14T11:33:46.412Z,63.58
2019-02-14T11:36:14.654Z,63.38
2019-02-14T11:38:42.899Z,63.39
2019-02-14T11:41:11.146Z,61.69
2019-02-14T11:43:39.615Z,62.54
2019-02-14T11:46:08.083Z,61.71
2019-02-14T11:48:36.322Z,62.10
2019-02-14T11:51:04.888Z,60.36
2019-02-14T11:53:33.153Z,61.68
2019-02-14T11:56:01.402Z,59.93
2019-02-14T11:58:29.632Z,60.78
2019-02-14T12:00:57.878Z,60.37
2019-02-14T12:03:26.115Z,60.57
2019-02-14T12:05:54.572Z,59.46
2019-02-14T12:08:22.828Z,58.61
2019-02-14T12:10:51.058Z,59.38
2019-02-14T12:13:19.335Z,59.75
2019-02-14T12:15:47.571Z,57.89
2019-02-14T12:18:15.813Z,59.11
2019-02-14T12:20:44.055Z,57.89
2019-02-14T12:23:12.293Z,57.82
2019-02-14T12:25:40.527Z,58.78
2019-02-14T12:28:08.759Z,58.52
2019-02-14T12:30:37.002Z,58.74
2019-02-14T12:33:05.235Z,56.96
2019-02-14T12:35:33.480Z,56.75
2019-02-14T12:38:02.063Z,58.33
2019-02-14T12:40:30.292Z,57.44
2019-02-14T12:42:58.811Z,56.56
2019-02-14T12:45:27.419Z,57.29
2019-02-14T12:47:55.978Z,57.39
2019-02-14T12:50:24.451Z,57.27
2019-02-14T12:52:52.697Z,55.60
2019-02-14T12:55:20.927Z,56.54
2019-02-14T12:57:49.167Z,56.95
2019-02-14T13:00:22.289Z,56.86
2019-02-14T13:02:50.534Z,55.39
2019-02-14T13:05:19.041Z,56.97
2019-02-14T13:07:47.287Z,56.38
2019-02-14T13:10:17.526Z,56.72
2019-02-14T13:12:45.770Z,56.75
2019-02-14T13:15:16.919Z,55.95
2019-02-14T13:17:45.452Z,55.64
2019-02-14T13:20:13.951Z,55.61
2019-02-14T13:22:42.182Z,55.41
2019-02-14T13:25:11.826Z,55.67
2019-02-14T13:27:40.286Z,57.09
2019-02-14T13:30:11.535Z,57.25
2019-02-14T13:32:39.768Z,57.14
2019-02-14T13:35:08.005Z,56.04
2019-02-14T13:37:36.479Z,56.18
2019-02-14T13:40:06.304Z,56.96
2019-02-14T13:42:34.513Z,56.24
2019-02-14T13:45:02.824Z,56.94
2019-02-14T13:47:31.052Z,56.59
2019-02-14T13:49:59.298Z,55.71
2019-02-14T13:52:27.526Z,56.36
2019-02-14T13:54:55.776Z,56.60
2019-02-14T13:57:24.010Z,56.27
2019-02-14T13:59:52.566Z,56.57
2019-02-14T14:02:21.009Z,56.02
2019-02-14T14:04:49.237Z,55.88
2019-02-14T14:07:17.464Z,56.13
2019-02-14T14:09:46.099Z,54.83
2019-02-14T14:12:14.616Z,55.46
2019-02-14T14:14:43.094Z,55.13
2019-02-14T14:17:11.332Z,54.86
2019-02-14T14:19:39.586Z,55.85
2019-02-14T14:22:07.827Z,55.13
2019-02-14T14:24:36.080Z,53.76
2019-02-14T14:27:04.589Z,55.38
2019-02-14T14:29:32.836Z,54.66
2019-02-14T14:32:01.940Z,54.63
2019-02-14T14:34:30.285Z,54.15
2019-02-14T14:36:58.527Z,54.40
2019-02-14T14:39:26.777Z,52.62
2019-02-14T14:41:55.006Z,53.87
2019-02-14T14:44:30.699Z,54.26
2019-02-14T14:46:58.934Z,53.88
2019-02-14T14:49:27.181Z,53.90
2019-02-14T14:51:55.427Z,53.53
2019-02-14T14:54:23.677Z,52.23
2019-02-14T14:56:52.212Z,51.69
2019-02-14T14:59:20.690Z,52.52
2019-02-14T15:01:49.152Z,52.73
2019-02-14T15:04:17.382Z,51.82
2019-02-14T15:06:45.633Z,50.95
2019-02-14T15:09:13.870Z,51.97
2019-02-14T15:11:42.121Z,50.37
2019-02-14T15:14:10.358Z,50.99
2019-02-14T15:16:38.940Z,51.75
2019-02-14T15:19:07.420Z,51.13
2019-02-14T15:21:35.675Z,49.46
2019-02-14T15:24:04.142Z,49.82
2019-02-14T15:26:32.401Z,49.37
2019-02-14T15:29:00.939Z,49.75
2019-02-14T15:31:29.408Z,47.88
2019-02-14T15:33:57.645Z,48.56
2019-02-14T15:36:28.183Z,50.05
2019-02-14T15:38:55.867Z,51.40
2019-02-14T15:41:24.324Z,50.51
2019-02-14T15:43:52.576Z,51.25
2019-02-14T15:46:21.035Z,51.71
2019-02-14T15:48:49.262Z,51.92
2019-02-14T15:51:19.558Z,52.41
2019-02-14T15:53:47.693Z,53.21
2019-02-14T15:56:15.931Z,54.08
2019-02-14T15:58:44.165Z,54.23
2019-02-14T16:01:14.448Z,54.76
2019-02-14T16:03:42.806Z,55.08
2019-02-14T16:06:11.313Z,55.63
2019-02-14T16:08:39.555Z,56.33
2019-02-14T16:11:09.715Z,56.83
2019-02-14T16:13:37.968Z,57.34
2019-02-14T16:16:06.231Z,57.59
2019-02-14T16:18:34.464Z,57.96
2019-02-14T16:21:03.696Z,58.41
2019-02-14T16:23:34.202Z,58.75
2019-02-14T16:26:02.578Z,58.92
2019-02-14T16:28:31.009Z,59.12
2019-02-14T16:30:59.243Z,59.51
2019-02-14T16:33:27.730Z,59.94
2019-02-14T16:35:55.961Z,60.07
2019-02-14T16:38:24.208Z,60.32
2019-02-14T16:40:52.443Z,60.96
2019-02-14T16:43:20.804Z,60.51
2019-02-14T16:45:49.028Z,60.83
2019-02-14T16:48:17.287Z,61.66
2019-02-14T16:50:45.517Z,62.20
2019-02-14T16:53:14.042Z,62.59
2019-02-14T16:55:42.497Z,62.88
2019-02-14T16:58:10.746Z,63.23
2019-02-14T17:00:38.977Z,63.35
2019-02-14T17:03:07.219Z,63.51
2019-02-14T17:05:35.449Z,64.29
2019-02-14T17:08:03.694Z,63.96
2019-02-14T17:10:37.099Z,64.49
2019-02-14T17:13:02.203Z,64.82
2019-02-14T17:15:30.440Z,64.97
2019-02-14T17:17:58.680Z,65.54
2019-02-14T17:20:26.911Z,64.93
2019-02-14T17:22:55.149Z,65.16
2019-02-14T17:25:23.610Z,65.34
2019-02-14T17:27:51.864Z,65.54
2019-02-14T17:30:20.345Z,66.22
2019-02-14T17:32:48.937Z,66.15
2019-02-14T17:35:17.427Z,66.65
2019-02-14T17:37:46.000Z,66.73
2019-02-14T17:40:14.238Z,66.50
2019-02-14T17:42:42.715Z,66.63
2019-02-14T17:45:11.113Z,66.71
2019-02-14T17:47:39.625Z,66.74
2019-02-14T17:50:08.800Z,66.84
2019-02-14T17:52:37.057Z,67.02
2019-02-14T17:55:08.270Z,67.17
2019-02-14T17:57:36.738Z,67.19
2019-02-14T18:00:08.586Z,67.26
2019-02-14T18:02:37.067Z,67.47
2019-02-14T18:05:07.709Z,67.36
2019-02-14T18:07:36.285Z,68.74
2019-02-14T18:10:10.415Z,67.81
2019-02-14T18:12:38.655Z,67.89
2019-02-14T18:15:09.938Z,68.35
2019-02-14T18:17:38.174Z,68.02
2019-02-14T18:20:09.150Z,68.09
2019-02-14T18:22:37.654Z,68.35
2019-02-14T18:25:09.202Z,68.26
2019-02-14T18:27:37.435Z,68.41
2019-02-14T18:30:10.865Z,68.17
2019-02-14T18:32:39.336Z,68.17
2019-02-14T18:35:11.886Z,68.97
2019-02-14T18:37:40.433Z,68.97
2019-02-14T18:40:10.223Z,69.18
2019-02-14T18:42:41.490Z,69.20
2019-02-14T18:45:13.833Z,69.16
2019-02-14T18:47:42.346Z,69.43
2019-02-14T18:50:14.208Z,69.64
2019-02-14T18:52:42.446Z,69.92
2019-02-14T18:55:11.536Z,69.92
2019-02-14T18:57:39.767Z,69.69
2019-02-14T19:00:11.361Z,69.89
2019-02-14T19:02:39.587Z,69.98
2019-02-14T19:05:10.211Z,69.96
2019-02-14T19:07:38.773Z,69.69
2019-02-14T19:10:10.152Z,69.69
2019-02-14T19:15:12.500Z,70.07
2019-02-14T19:17:40.718Z,69.94
2019-02-14T19:20:11.678Z,69.97
2019-02-14T19:22:40.870Z,70.09
2019-02-14T19:25:09.626Z,70.31
2019-02-14T19:27:37.846Z,70.31
2019-02-14T19:30:08.895Z,70.30
2019-02-14T19:32:37.123Z,70.24
2019-02-14T19:35:07.501Z,70.51
2019-02-14T19:37:35.748Z,70.47
2019-02-14T19:40:05.736Z,70.47
2019-02-14T19:42:34.033Z,70.68
2019-02-14T19:45:02.517Z,70.60
2019-02-14T19:47:30.805Z,70.42
2019-02-14T19:49:59.036Z,70.33
2019-02-14T19:52:27.542Z,70.76
2019-02-14T19:54:55.837Z,70.76
2019-02-14T19:57:24.072Z,70.10
2019-02-14T19:59:52.305Z,70.97
2019-02-14T20:02:20.540Z,70.65
2019-02-14T20:04:48.773Z,70.25
2019-02-14T20:07:17.018Z,70.25
2019-02-14T20:09:45.266Z,70.66
2019-02-14T20:12:13.503Z,70.45
2019-02-14T20:14:41.758Z,70.45
2019-02-14T20:17:09.999Z,70.26
2019-02-14T20:19:38.605Z,70.26
2019-02-14T20:22:06.893Z,70.51
2019-02-14T20:24:35.124Z,69.91
2019-02-14T20:27:03.365Z,69.91
2019-02-14T20:29:31.586Z,70.16
2019-02-14T20:32:00.084Z,69.83
2019-02-14T20:34:28.361Z,69.83
2019-02-14T20:36:56.550Z,69.58
2019-02-14T20:39:24.841Z,69.51
2019-02-14T20:41:53.083Z,68.15
2019-02-14T20:44:21.573Z,68.15
2019-02-14T20:46:50.052Z,68.29
2019-02-14T20:49:18.288Z,68.35
2019-02-14T20:51:46.519Z,68.93
2019-02-14T20:54:14.747Z,69.38
2019-02-14T20:56:43.162Z,69.95
2019-02-14T20:59:11.639Z,69.78
2019-02-14T21:01:39.864Z,69.78
2019-02-14T21:04:08.109Z,69.84
2019-02-14T21:06:36.337Z,69.84
2019-02-14T21:09:06.637Z,69.84
2019-02-14T21:11:35.181Z,69.62
2019-02-14T21:14:03.420Z,69.62
2019-02-14T21:16:31.942Z,69.84
2019-02-14T21:19:00.189Z,70.15
2019-02-14T21:21:28.415Z,70.47
2019-02-14T21:23:57.049Z,70.08
2019-02-14T21:26:25.256Z,70.08
2019-02-14T21:28:53.738Z,70.08
2019-02-14T21:31:21.982Z,69.72
2019-02-14T21:33:50.212Z,69.55
2019-02-14T21:36:18.441Z,69.48
2019-02-14T21:38:46.693Z,68.44
2019-02-14T21:41:14.911Z,68.70
2019-02-14T21:43:43.165Z,68.79
2019-02-14T21:46:11.498Z,68.66
2019-02-14T21:48:39.987Z,68.56
2019-02-14T21:51:08.186Z,69.89
2019-02-14T21:53:36.439Z,69.75
2019-02-14T21:56:04.659Z,69.75
2019-02-14T21:58:32.890Z,69.47
2019-02-14T22:01:01.217Z,69.50
2019-02-14T22:03:29.711Z,69.25
2019-02-14T22:05:57.939Z,69.05
2019-02-14T22:08:26.204Z,68.78
2019-02-14T22:10:54.432Z,68.59
2019-02-14T22:13:24.772Z,68.48
2019-02-14T22:15:52.974Z,68.71
2019-02-14T22:18:21.245Z,68.65
2019-02-14T22:20:49.474Z,68.79
2019-02-14T22:23:17.793Z,69.30
2019-02-14T22:25:46.030Z,68.66
2019-02-14T22:28:14.540Z,68.88
2019-02-14T22:30:43.003Z,68.52
2019-02-14T22:33:11.237Z,69.35
2019-02-14T22:35:39.703Z,69.21
2019-02-14T22:38:07.936Z,68.96
2019-02-14T22:40:36.173Z,68.99
2019-02-14T22:43:04.627Z,68.57
2019-02-14T22:45:32.865Z,68.57
2019-02-14T22:48:01.095Z,69.01
2019-02-14T22:50:29.338Z,69.13
2019-02-14T22:52:57.569Z,69.09
2019-02-14T22:55:25.814Z,69.17
2019-02-14T22:57:54.043Z,69.00
2019-02-14T23:00:33.094Z,69.73
2019-02-14T23:03:01.324Z,69.84
2019-02-14T23:05:29.580Z,69.36
2019-02-14T23:07:57.837Z,69.67
2019-02-14T23:10:26.079Z,69.43
2019-02-14T23:12:55.975Z,69.70
2019-02-14T23:15:24.281Z,69.74
2019-02-14T23:17:52.741Z,69.63
2019-02-14T23:20:21.274Z,69.73
2019-02-14T23:22:49.503Z,70.24
2019-02-14T23:25:18.151Z,70.58
2019-02-14T23:27:46.387Z,69.84
2019-02-14T23:30:15.013Z,70.20
2019-02-14T23:32:43.255Z,70.41
2019-02-14T23:35:11.482Z,70.13
2019-02-14T23:37:39.722Z,70.86
2019-02-14T23:40:07.950Z,70.58
2019-02-14T23:42:36.182Z,70.67
2019-02-14T23:45:06.814Z,70.44
2019-02-14T23:47:35.285Z,71.41
2019-02-14T23:50:04.549Z,70.56
2019-02-14T23:52:32.782Z,71.11
2019-02-14T23:55:01.011Z,71.35
2019-02-14T23:57:29.469Z,71.42
2019-02-14T23:59:57.923Z,71.30
